createdAt,value
2018-03-25T00:04:18.420Z,4.12
2018-03-25T00:10:09.323Z,4.48
2018-03-25T00:16:00.248Z,4.81
2018-03-25T00:21:51.090Z,4.76
2018-03-25T00:27:42.071Z,5.32
2018-03-25T00:33:32.896Z,4.96
2018-03-25T00:39:23.868Z,4.87
2018-03-25T00:45:14.767Z,5.51
2018-03-25T00:51:05.585Z,5.52
2018-03-25T00:56:56.486Z,5.9
2018-03-25T01:02:47.369Z,6.13
2018-03-25T01:08:38.277Z,6.29
2018-03-25T01:14:29.189Z,6.21
2018-03-25T01:20:20.015Z,5.71
2018-03-25T01:26:10.965Z,6.23
2018-03-25T01:32:01.815Z,6.04
2018-03-25T01:37:52.690Z,5.68
2018-03-25T01:43:43.704Z,5.98
2018-03-25T01:49:34.533Z,5.75
2018-03-25T01:55:25.481Z,5.68
2018-03-25T02:01:16.250Z,5.91
2018-03-25T02:07:07.201Z,5.77
2018-03-25T02:12:58.073Z,6.35
2018-03-25T02:18:48.922Z,5.55
2018-03-25T02:24:39.853Z,6.17
2018-03-25T02:30:30.768Z,5.54
2018-03-25T02:36:21.616Z,6.63
2018-03-25T02:42:12.508Z,6.11
2018-03-25T02:48:03.420Z,6.46
2018-03-25T02:53:54.252Z,6.68
2018-03-25T02:59:45.212Z,6.23
2018-03-25T03:05:36.124Z,5.98
2018-03-25T03:11:27.001Z,6.1
2018-03-25T03:17:17.869Z,5.47
2018-03-25T03:23:08.734Z,5.83
2018-03-25T03:28:59.571Z,5.71
2018-03-25T03:34:50.507Z,5.42
2018-03-25T03:40:41.393Z,5.82
2018-03-25T03:46:32.325Z,5.71
2018-03-25T03:52:23.176Z,5.98
2018-03-25T03:58:14.060Z,4.81
2018-03-25T04:04:04.928Z,6.16
2018-03-25T04:09:55.853Z,13.02
2018-03-25T04:15:46.740Z,5.92
2018-03-25T04:21:37.627Z,5.3
2018-03-25T04:27:28.509Z,5.12
2018-03-25T04:33:19.369Z,5.61
2018-03-25T04:39:10.326Z,5.89
2018-03-25T04:45:01.194Z,5.66
2018-03-25T04:50:52.087Z,6.31
2018-03-25T04:56:42.981Z,6.58
2018-03-25T05:02:33.842Z,6.89
2018-03-25T05:08:24.745Z,6.74
2018-03-25T05:14:15.672Z,6.43
2018-03-25T05:20:06.585Z,6.99
2018-03-25T05:25:57.375Z,7.11
2018-03-25T05:31:48.333Z,7.37
2018-03-25T05:37:39.187Z,8.21
2018-03-25T05:43:30.013Z,8.44
2018-03-25T05:49:20.926Z,9.02
2018-03-25T05:55:11.850Z,9.39
2018-03-25T06:01:02.705Z,8.23
2018-03-25T06:06:53.595Z,8.66
2018-03-25T06:12:44.527Z,9.29
2018-03-25T06:18:35.374Z,8.73
2018-03-25T06:24:26.230Z,9.1
2018-03-25T06:30:17.163Z,8.76
2018-03-25T06:36:08.056Z,8.76
2018-03-25T06:41:58.954Z,8.35
2018-03-25T06:47:49.818Z,8.12
2018-03-25T06:53:40.698Z,8.87
2018-03-25T06:59:31.642Z,8.78
2018-03-25T07:05:22.555Z,7.85
2018-03-25T07:11:13.392Z,8.23
2018-03-25T07:17:04.242Z,8.44
2018-03-25T07:22:55.141Z,7.8
2018-03-25T07:28:46.091Z,7.92
2018-03-25T07:34:36.884Z,7.59
2018-03-25T07:40:27.768Z,6.47
2018-03-25T07:46:18.695Z,7.31
2018-03-25T07:52:09.597Z,3.94
2018-03-25T07:58:00.472Z,6.58
2018-03-25T08:03:51.423Z,3.64
2018-03-25T08:09:42.235Z,6.36
2018-03-25T08:15:33.139Z,6.86
2018-03-25T08:21:24.025Z,7.15
2018-03-25T08:27:14.948Z,7.22
2018-03-25T08:33:05.837Z,6.55
2018-03-25T08:38:56.695Z,6.59
2018-03-25T08:44:47.568Z,6.12
2018-03-25T08:50:38.447Z,6.7
2018-03-25T08:56:29.340Z,6.18
2018-03-25T09:02:20.253Z,6.62
2018-03-25T09:08:11.215Z,6.93
2018-03-25T09:14:02.015Z,7.82
2018-03-25T09:19:52.895Z,9.07
2018-03-25T09:25:43.835Z,7.3
2018-03-25T09:31:34.750Z,7.86
2018-03-25T09:37:25.616Z,8.51
2018-03-25T09:43:16.471Z,8.04
2018-03-25T09:49:07.382Z,11.06
2018-03-25T09:54:58.268Z,8.94
2018-03-25T10:00:49.241Z,9.1
2018-03-25T10:06:40.092Z,11.88
2018-03-25T10:12:30.964Z,10.02
2018-03-25T10:18:21.829Z,10.5
2018-03-25T10:24:12.706Z,13.44
2018-03-25T10:30:03.616Z,10.1
2018-03-25T10:35:54.511Z,10.1
2018-03-25T10:41:45.465Z,10.24
2018-03-25T10:47:36.269Z,10.44
2018-03-25T10:53:27.238Z,16.49
2018-03-25T10:59:18.067Z,16.35
2018-03-25T11:05:09.045Z,14.17
2018-03-25T11:10:59.851Z,12.26
2018-03-25T11:16:50.770Z,11.14
2018-03-25T11:22:41.633Z,9.61
2018-03-25T11:28:32.554Z,9.3
2018-03-25T11:34:23.469Z,8.39
2018-03-25T11:40:14.454Z,11.16
2018-03-25T11:46:05.219Z,8.78
2018-03-25T11:51:56.163Z,8.63
2018-03-25T11:57:47.071Z,9.66
2018-03-25T12:03:37.926Z,10.42
2018-03-25T12:09:28.783Z,9.32
2018-03-25T12:15:19.715Z,9.61
2018-03-25T12:21:10.565Z,9.24
2018-03-25T12:27:01.491Z,9.77
2018-03-25T12:32:52.462Z,8.38
2018-03-25T12:38:43.356Z,9.2
2018-03-25T12:44:34.227Z,10.08
2018-03-25T12:50:25.130Z,9.14
2018-03-25T12:56:15.932Z,9.75
2018-03-25T13:02:06.860Z,12.91
2018-03-25T13:07:57.805Z,10.25
2018-03-25T13:13:48.644Z,11.03
2018-03-25T13:19:39.552Z,11.09
2018-03-25T13:25:30.509Z,9.43
2018-03-25T13:31:21.378Z,9.56
2018-03-25T13:37:12.257Z,10.31
2018-03-25T13:43:03.168Z,10.25
2018-03-25T13:48:54.132Z,11.25
2018-03-25T13:54:44.965Z,11.35
2018-03-25T14:00:35.866Z,13.36
2018-03-25T14:06:26.771Z,13.92
2018-03-25T14:12:17.738Z,14.46
2018-03-25T14:18:08.554Z,13.93
2018-03-25T14:23:59.496Z,15.98
2018-03-25T14:29:50.401Z,12.65
2018-03-25T14:35:41.279Z,14.26
2018-03-25T14:41:32.270Z,12.74
2018-03-25T14:47:23.088Z,14.81
2018-03-25T14:53:13.981Z,15.06
2018-03-25T14:59:04.872Z,15.09
2018-03-25T15:04:55.795Z,15.79
2018-03-25T15:10:46.696Z,16.26
2018-03-25T15:16:37.576Z,16.13
2018-03-25T15:22:28.510Z,14.95
2018-03-25T15:28:19.413Z,15.84
2018-03-25T15:34:10.296Z,23.94
2018-03-25T15:40:01.250Z,23.16
2018-03-25T15:45:52.192Z,31.74
2018-03-25T15:51:42.999Z,18.41
2018-03-25T15:57:33.913Z,18.46
2018-03-25T16:03:24.782Z,15.8
2018-03-25T16:09:15.699Z,18.16
2018-03-25T16:15:06.568Z,17.81
2018-03-25T16:20:57.470Z,14.73
2018-03-25T16:26:48.410Z,16.11
2018-03-25T16:32:39.257Z,14.21
2018-03-25T16:38:30.181Z,16.26
2018-03-25T16:44:21.080Z,15.14
2018-03-25T16:50:12.031Z,16.66
2018-03-25T16:56:02.887Z,17.94
2018-03-25T17:01:53.797Z,16.44
2018-03-25T17:07:44.668Z,16.94
2018-03-25T17:13:35.609Z,16.63
2018-03-25T17:19:26.521Z,20.44
2018-03-25T17:25:17.329Z,19.13
2018-03-25T17:31:08.231Z,17.92
2018-03-25T17:36:59.214Z,18.34
2018-03-25T17:42:50.061Z,18.65
2018-03-25T17:48:40.971Z,18.45
2018-03-25T17:54:31.852Z,17.29
2018-03-25T18:00:22.712Z,16.87
2018-03-25T18:06:13.662Z,19.48
2018-03-25T18:12:04.491Z,18.52
2018-03-25T18:17:55.446Z,19.62
2018-03-25T18:23:46.309Z,19.3
2018-03-25T18:29:37.216Z,18.65
2018-03-25T18:35:28.120Z,17.87
2018-03-25T18:41:18.997Z,17.88
2018-03-25T18:47:09.939Z,18.23
2018-03-25T18:53:00.774Z,17.93
2018-03-25T18:58:51.668Z,18.65
2018-03-25T19:04:42.561Z,18.9
2018-03-25T19:10:33.473Z,18.68
2018-03-25T19:16:24.397Z,19.21
2018-03-25T19:22:15.278Z,19.26
2018-03-25T19:28:06.184Z,19.74
2018-03-25T19:33:57.036Z,19.63
2018-03-25T19:39:47.930Z,19.23
2018-03-25T19:45:38.833Z,19.04
2018-03-25T19:51:29.752Z,18.05
2018-03-25T19:57:20.614Z,17.6
2018-03-25T20:03:11.513Z,18.18
2018-03-25T20:09:02.451Z,18.19
2018-03-25T20:14:53.318Z,20.49
2018-03-25T20:20:44.269Z,18.88
2018-03-25T20:26:35.096Z,17.81
2018-03-25T20:32:25.995Z,18.45
2018-03-25T20:38:16.926Z,16.57
2018-03-25T20:44:07.839Z,17.78
2018-03-25T20:49:58.668Z,19.09
2018-03-25T20:55:49.568Z,17.91
2018-03-25T21:01:40.509Z,17.24
2018-03-25T21:07:31.379Z,16.85
2018-03-25T21:13:22.259Z,17.21
2018-03-25T21:19:13.202Z,17.41
2018-03-25T21:25:04.076Z,17.61
2018-03-25T21:30:54.941Z,15.72
2018-03-25T21:36:45.823Z,15.58
2018-03-25T21:42:36.714Z,16.02
2018-03-25T21:48:27.602Z,15.36
2018-03-25T21:54:18.529Z,17.11
2018-03-25T22:00:09.401Z,16.77
2018-03-25T22:06:00.303Z,15.03
2018-03-25T22:11:51.185Z,16
2018-03-25T22:17:42.129Z,17.86
2018-03-25T22:23:32.960Z,17.53
2018-03-25T22:29:23.955Z,16.7
2018-03-25T22:35:14.769Z,16.94
2018-03-25T22:41:05.631Z,16.79
2018-03-25T22:46:56.600Z,17.88
2018-03-25T22:52:47.526Z,16.89
2018-03-25T22:58:38.305Z,15.1
2018-03-25T23:04:29.201Z,16.34
2018-03-25T23:10:20.112Z,18.69
2018-03-25T23:16:10.982Z,17.14
2018-03-25T23:22:01.885Z,22.92
2018-03-25T23:27:52.777Z,16.62
2018-03-25T23:33:43.699Z,14.41
2018-03-25T23:39:34.571Z,16.53
2018-03-25T23:45:25.437Z,14.26
2018-03-25T23:51:16.352Z,13.62
2018-03-25T23:57:07.354Z,14.54
